Aérodrome :







RETROUVEZ-NOUS SUR...

 
LOGIN :

S'inscrire | Disclaimer

   EN    FR    IT 

 









Légende :    VFR   VFR Marginal   IFR   IFR Intensif   IFR Très Intensif
Visi : 
Plafond : 
>= 8 km
>= 3000ft
5 à 8 km
1000 à 3000 ft
1500m à 5 km
500 à 1000 ft
800 à 1500m
200 à 500 ft
< 800m
< 200 ft
Symboles :   Orages  Brouillard  Fortes neiges  Fortes précipitations  Vent > 20 kt






- Altitude de l'aérodrome : 193 ft
- Code IATA : ZBF


CZBF - Bathurst

DERNIER METAR :
  • 242300Z AUTO 30013G29KT 9SM CLR M06/M14 A3018 RMK SLP234

METARs EXPIRÉS :
  • 242200Z AUTO 30009G22KT 270V340 9SM CLR M06/M14 A3014 RMK PRESRR SLP218
  • 242100Z AUTO 30015G31KT 270V330 9SM CLR M05/M14 A3008 RMK PRESRR SLP197

TAF TAF CZBF
Valide du 24 à 20h jusqu'au 25 à 04h UTC


241938Z 2420/2504 31015G35KT P6SM BKN040
TEMPO 2420/2422 5SM -SHSN
FM242200 30015G30KT P6SM FEW040
BECMG 2501/2503 29010G20KT RMK FCST BASED ON AUTO OBS. NXT FCST BY 250200Z
FIR CZQM / Amérique du Nord



MET'MAP, la Météo Aéronautique d'un coup d'oeil ! - Copyright ORBIFLY Décembre 2007 - Disclaimer

ORBIFLY MET'MAP TEAM :

Programmation & Développement : Alexandra Zaïnal
Sur une idée originale de : Baudouin d'Aumeries
Assistance à la programmation : Marc-Olivier Méhu
Soutien technique & logistique : Manuel Goepfert

Contact : metmap@orbifly.com




SOURCES & CREDITS :

   NOAA